createdAt,value
2022-09-21T00:00:48.760Z,9.41
2022-09-21T00:01:48.339Z,9.41
2022-09-21T00:02:48.429Z,9.41
2022-09-21T00:03:49.241Z,9.41
2022-09-21T00:04:51.297Z,9.40
2022-09-21T00:05:49.413Z,9.40
2022-09-21T00:06:49.653Z,9.40
2022-09-21T00:07:48.479Z,9.39
2022-09-21T00:08:54.811Z,9.39
2022-09-21T00:09:48.213Z,9.38
2022-09-21T00:10:48.513Z,9.38
2022-09-21T00:11:58.197Z,9.38
2022-09-21T00:12:48.527Z,9.38
2022-09-21T00:13:49.609Z,9.37
2022-09-21T00:14:50.834Z,9.37
2022-09-21T00:15:48.567Z,9.37
2022-09-21T00:16:49.939Z,9.37
2022-09-21T00:17:49.941Z,9.37
2022-09-21T00:18:48.096Z,9.37
2022-09-21T00:19:49.044Z,9.37
2022-09-21T00:20:51.488Z,9.37
2022-09-21T00:21:48.242Z,9.37
2022-09-21T00:22:51.410Z,9.37
2022-09-21T00:23:48.201Z,9.36
2022-09-21T00:24:48.222Z,9.36
2022-09-21T00:25:49.379Z,9.36
2022-09-21T00:26:48.893Z,9.35
2022-09-21T00:27:48.489Z,9.34
2022-09-21T00:28:50.120Z,9.34
2022-09-21T00:29:49.030Z,9.33
2022-09-21T00:30:49.019Z,9.32
2022-09-21T00:31:54.520Z,9.32
2022-09-21T00:32:47.895Z,9.31
2022-09-21T00:33:49.569Z,9.30
2022-09-21T00:34:48.155Z,9.29
2022-09-21T00:35:50.224Z,9.29
2022-09-21T00:36:49.559Z,9.28
2022-09-21T00:37:47.963Z,9.27
2022-09-21T00:38:47.913Z,9.27
2022-09-21T00:39:48.165Z,9.26
2022-09-21T00:40:48.160Z,9.26
2022-09-21T00:41:49.800Z,9.25
2022-09-21T00:42:47.757Z,9.25
2022-09-21T00:43:48.758Z,9.24
2022-09-21T00:44:47.810Z,9.24
2022-09-21T00:45:47.796Z,9.23
2022-09-21T00:46:48.750Z,9.23
2022-09-21T00:47:48.107Z,9.22
2022-09-21T00:48:48.024Z,9.22
2022-09-21T00:49:47.712Z,9.22
2022-09-21T00:50:47.821Z,9.22
2022-09-21T00:51:49.906Z,9.22
2022-09-21T00:52:47.716Z,9.22
2022-09-21T00:53:47.693Z,9.23
2022-09-21T00:54:49.855Z,9.23
2022-09-21T00:55:47.757Z,9.24
2022-09-21T00:56:48.734Z,9.24
2022-09-21T00:57:54.201Z,9.25
2022-09-21T00:58:47.850Z,9.25
2022-09-21T00:59:48.953Z,9.26
2022-09-21T01:00:47.540Z,9.26
2022-09-21T01:01:47.995Z,9.27
2022-09-21T01:02:55.853Z,9.27
2022-09-21T01:03:48.518Z,9.28
2022-09-21T01:04:50.206Z,9.29
2022-09-21T01:05:47.729Z,9.29
2022-09-21T01:06:49.632Z,9.30
2022-09-21T01:07:48.647Z,9.30
2022-09-21T01:08:48.662Z,9.31
2022-09-21T01:09:48.671Z,9.32
2022-09-21T01:10:49.193Z,9.33
2022-09-21T01:11:48.599Z,9.33
2022-09-21T01:12:49.770Z,9.34
2022-09-21T01:13:48.804Z,9.35
2022-09-21T01:14:54.518Z,9.36
2022-09-21T01:15:48.127Z,9.36
2022-09-21T01:16:50.587Z,9.37
2022-09-21T01:17:56.034Z,9.37
2022-09-21T01:18:55.185Z,9.37
2022-09-21T01:19:52.048Z,9.38
2022-09-21T01:20:57.181Z,9.38
2022-09-21T01:21:48.354Z,9.38
2022-09-21T01:22:49.394Z,9.38
2022-09-21T01:23:50.410Z,9.39
2022-09-21T01:24:48.855Z,9.39
2022-09-21T01:25:48.250Z,9.39
2022-09-21T01:26:48.869Z,9.39
2022-09-21T01:27:47.356Z,9.39
2022-09-21T01:28:49.171Z,9.39
2022-09-21T01:29:51.008Z,9.38
2022-09-21T01:30:55.070Z,9.38
2022-09-21T01:31:48.226Z,9.38
2022-09-21T01:32:57.265Z,9.39
2022-09-21T01:33:47.346Z,9.39
2022-09-21T01:34:52.366Z,9.39
2022-09-21T01:35:47.251Z,9.39
2022-09-21T01:37:21.725Z,10.53
2022-09-21T01:38:23.872Z,10.08
2022-09-21T01:39:20.960Z,9.78
2022-09-21T01:40:21.445Z,9.61
2022-09-21T01:41:22.577Z,9.51
2022-09-21T01:42:28.008Z,9.45
2022-09-21T01:43:21.874Z,9.41
2022-09-21T01:44:24.947Z,9.39
2022-09-21T01:45:21.510Z,9.38
2022-09-21T01:46:21.203Z,9.37
2022-09-21T01:47:43.587Z,9.36
2022-09-21T01:48:21.640Z,9.36
2022-09-21T01:49:21.244Z,9.35
2022-09-21T01:50:23.758Z,9.35
2022-09-21T01:51:21.072Z,9.34
2022-09-21T01:52:20.959Z,9.34
2022-09-21T01:53:21.636Z,9.33
2022-09-21T01:54:22.696Z,9.32
2022-09-21T01:55:20.832Z,9.32
2022-09-21T01:56:22.918Z,9.31
2022-09-21T01:57:20.743Z,9.30
2022-09-21T01:58:23.099Z,9.30
2022-09-21T01:59:27.313Z,9.29
2022-09-21T02:00:20.622Z,9.29
2022-09-21T02:01:21.932Z,9.28
2022-09-21T02:02:21.161Z,9.28
2022-09-21T02:03:22.555Z,9.28
2022-09-21T02:04:22.878Z,9.27
2022-09-21T02:05:21.398Z,9.27
2022-09-21T02:06:20.889Z,9.27
2022-09-21T02:07:21.372Z,9.27
2022-09-21T02:08:20.947Z,9.26
2022-09-21T02:09:20.360Z,9.26
2022-09-21T02:10:20.963Z,9.26
2022-09-21T02:11:27.356Z,9.25
2022-09-21T02:12:20.773Z,9.25
2022-09-21T02:13:20.805Z,9.24
2022-09-21T02:14:22.532Z,9.23
2022-09-21T02:15:20.298Z,9.22
2022-09-21T02:16:21.012Z,9.21
2022-09-21T02:17:22.108Z,9.20
2022-09-21T02:18:20.579Z,9.19
2022-09-21T02:19:20.260Z,9.18
2022-09-21T02:20:20.258Z,9.17
2022-09-21T02:21:20.806Z,9.16
2022-09-21T02:22:20.319Z,9.15
2022-09-21T02:23:21.982Z,9.15
2022-09-21T02:24:20.498Z,9.14
2022-09-21T02:25:23.066Z,9.13
2022-09-21T02:26:22.825Z,9.13
2022-09-21T02:27:21.192Z,9.12
2022-09-21T02:28:21.201Z,9.12
2022-09-21T02:29:20.536Z,9.12
2022-09-21T02:30:20.221Z,9.12
2022-09-21T02:31:21.399Z,9.11
2022-09-21T02:32:20.268Z,9.11
2022-09-21T02:33:21.361Z,9.11
2022-09-21T02:34:20.731Z,9.11
2022-09-21T02:35:20.251Z,9.11
2022-09-21T02:36:20.214Z,9.11
2022-09-21T02:37:20.328Z,9.10
2022-09-21T02:38:20.010Z,9.10
2022-09-21T02:39:21.037Z,9.09
2022-09-21T02:40:22.766Z,9.09
2022-09-21T02:41:20.490Z,9.09
2022-09-21T02:42:20.039Z,9.08
2022-09-21T02:43:20.267Z,9.08
2022-09-21T02:44:20.183Z,9.08
2022-09-21T02:45:28.127Z,9.08
2022-09-21T02:46:23.534Z,9.08
2022-09-21T02:47:21.755Z,9.08
2022-09-21T02:48:21.069Z,9.08
2022-09-21T02:49:20.169Z,9.08
2022-09-21T02:50:19.973Z,9.08
2022-09-21T02:51:26.423Z,9.08
2022-09-21T02:52:21.015Z,9.08
2022-09-21T02:53:19.933Z,9.08
2022-09-21T02:54:20.902Z,9.07
2022-09-21T02:55:19.932Z,9.07
2022-09-21T02:56:20.935Z,9.06
2022-09-21T02:57:24.458Z,9.05
2022-09-21T02:58:19.931Z,9.04
2022-09-21T02:59:19.953Z,9.03
2022-09-21T03:00:24.564Z,9.02
2022-09-21T03:01:19.987Z,9.01
2022-09-21T03:02:20.975Z,9.01
2022-09-21T03:03:20.935Z,9.00
2022-09-21T03:04:21.048Z,8.99
2022-09-21T03:05:21.512Z,8.99
2022-09-21T03:06:19.654Z,8.98
2022-09-21T03:07:19.618Z,8.98
2022-09-21T03:08:27.201Z,8.98
2022-09-21T03:09:19.806Z,8.98
2022-09-21T03:10:19.696Z,8.98
2022-09-21T03:11:19.695Z,8.98
2022-09-21T03:12:20.730Z,8.99
2022-09-21T03:13:21.291Z,8.99
2022-09-21T03:14:27.520Z,8.99
2022-09-21T03:15:29.184Z,8.99
2022-09-21T03:16:20.546Z,9.00
2022-09-21T03:17:20.741Z,9.00
2022-09-21T03:18:20.044Z,9.00
2022-09-21T03:19:26.208Z,9.00
2022-09-21T03:20:24.965Z,9.00
2022-09-21T03:21:20.121Z,9.00
2022-09-21T03:22:20.781Z,9.00
2022-09-21T03:23:19.554Z,8.99
2022-09-21T03:25:04.377Z,10.11
2022-09-21T03:26:04.313Z,9.66
2022-09-21T03:27:04.247Z,9.36
2022-09-21T03:28:04.222Z,9.19
2022-09-21T03:29:05.747Z,9.10
2022-09-21T03:30:05.059Z,9.04
2022-09-21T03:31:04.410Z,9.01
2022-09-21T03:32:04.498Z,8.99
2022-09-21T03:33:05.096Z,8.97
2022-09-21T03:34:06.216Z,8.96
2022-09-21T03:35:06.146Z,8.96
2022-09-21T03:36:04.418Z,8.96
2022-09-21T03:37:04.227Z,8.96
2022-09-21T03:38:04.286Z,8.96
2022-09-21T03:39:04.314Z,8.96
2022-09-21T03:40:04.256Z,8.97
2022-09-21T03:41:05.487Z,8.97
2022-09-21T03:42:04.253Z,8.98
2022-09-21T03:43:04.479Z,8.98
2022-09-21T03:44:11.750Z,8.97
2022-09-21T03:45:04.427Z,8.97
2022-09-21T03:46:04.251Z,8.96
2022-09-21T03:47:10.443Z,8.96
2022-09-21T03:48:04.088Z,8.95
2022-09-21T03:49:04.189Z,8.95
2022-09-21T03:50:09.155Z,8.95
2022-09-21T03:51:05.727Z,8.94
2022-09-21T03:52:05.422Z,8.94
2022-09-21T03:53:04.746Z,8.93
2022-09-21T03:54:04.340Z,8.92
2022-09-21T03:55:05.184Z,8.91
2022-09-21T03:56:04.409Z,8.91
2022-09-21T03:57:05.847Z,8.90
2022-09-21T03:58:05.364Z,8.89
2022-09-21T03:59:04.877Z,8.88
2022-09-21T04:00:05.335Z,8.87
2022-09-21T04:01:04.081Z,8.87
2022-09-21T04:02:05.398Z,8.86
2022-09-21T04:03:04.003Z,8.85
2022-09-21T04:04:03.851Z,8.84
2022-09-21T04:05:05.100Z,8.84
2022-09-21T04:06:05.027Z,8.83
2022-09-21T04:07:03.784Z,8.82
2022-09-21T04:08:04.725Z,8.82
2022-09-21T04:09:04.175Z,8.82
2022-09-21T04:10:03.982Z,8.82
2022-09-21T04:11:04.657Z,8.82
2022-09-21T04:12:03.763Z,8.83
2022-09-21T04:13:04.725Z,8.83
2022-09-21T04:14:05.130Z,8.84
2022-09-21T04:15:04.556Z,8.85
2022-09-21T04:16:03.981Z,8.86
2022-09-21T04:17:03.878Z,8.87
2022-09-21T04:18:04.762Z,8.88
2022-09-21T04:19:03.999Z,8.89
2022-09-21T04:20:05.136Z,8.91
2022-09-21T04:21:04.230Z,8.91
2022-09-21T04:22:04.813Z,8.92
2022-09-21T04:23:03.513Z,8.92
2022-09-21T04:24:04.075Z,8.93
2022-09-21T04:25:04.523Z,8.93
2022-09-21T04:26:04.211Z,8.92
2022-09-21T04:27:04.501Z,8.91
2022-09-21T04:28:05.053Z,8.91
2022-09-21T04:29:04.427Z,8.90
2022-09-21T04:30:03.533Z,8.89
2022-09-21T04:31:04.745Z,8.88
2022-09-21T04:32:03.692Z,8.88
2022-09-21T04:33:03.545Z,8.87
2022-09-21T04:34:04.515Z,8.86
2022-09-21T04:35:05.981Z,8.86
2022-09-21T04:36:03.649Z,8.85
2022-09-21T04:37:04.641Z,8.84
2022-09-21T04:38:03.803Z,8.84
2022-09-21T04:39:04.499Z,8.83
2022-09-21T04:40:03.735Z,8.82
2022-09-21T04:41:03.382Z,8.81
2022-09-21T04:42:04.337Z,8.80
2022-09-21T04:43:03.610Z,8.80
2022-09-21T04:44:06.040Z,8.79
2022-09-21T04:45:04.347Z,8.79
2022-09-21T04:46:03.936Z,8.79
2022-09-21T04:47:03.522Z,8.79
2022-09-21T04:48:05.077Z,8.79
2022-09-21T04:49:03.326Z,8.79
2022-09-21T04:50:03.670Z,8.80
2022-09-21T04:51:03.712Z,8.80
2022-09-21T04:52:05.464Z,8.80
2022-09-21T04:53:04.504Z,8.80
2022-09-21T04:54:09.940Z,8.80
2022-09-21T04:55:03.788Z,8.81
2022-09-21T04:56:45.183Z,8.81
2022-09-21T04:57:04.467Z,8.81
2022-09-21T04:58:03.912Z,8.81
2022-09-21T04:59:05.170Z,8.81
2022-09-21T05:00:03.265Z,8.82
2022-09-21T05:01:06.630Z,8.82
2022-09-21T05:02:03.356Z,8.83
2022-09-21T05:03:03.453Z,8.83
2022-09-21T05:04:03.236Z,8.84
2022-09-21T05:05:11.089Z,8.85
2022-09-21T05:06:03.171Z,8.85
2022-09-21T05:07:03.667Z,8.86
2022-09-21T05:08:03.117Z,8.87
2022-09-21T05:09:03.432Z,8.87
2022-09-21T05:10:10.140Z,8.88
2022-09-21T05:11:24.272Z,8.89
2022-09-21T05:12:03.486Z,8.89
2022-09-21T05:13:03.119Z,8.90
2022-09-21T05:14:03.265Z,8.91
2022-09-21T05:15:19.285Z,8.92
2022-09-21T05:16:03.123Z,8.92
2022-09-21T05:17:15.032Z,8.93
2022-09-21T05:18:04.353Z,8.93
2022-09-21T05:19:03.254Z,8.94
2022-09-21T05:20:04.574Z,8.95
2022-09-21T05:21:02.861Z,8.95
2022-09-21T05:22:03.276Z,8.96
2022-09-21T05:23:03.845Z,8.97
2022-09-21T05:24:02.977Z,8.98
2022-09-21T05:25:03.054Z,8.99
2022-09-21T05:26:09.132Z,9.00
2022-09-21T05:27:03.181Z,9.01
2022-09-21T05:28:04.922Z,9.02
2022-09-21T05:29:04.784Z,9.03
2022-09-21T05:30:03.055Z,9.04
2022-09-21T05:31:17.259Z,9.06
2022-09-21T05:32:05.970Z,9.07
2022-09-21T05:33:03.883Z,9.08
2022-09-21T05:34:03.553Z,9.09
2022-09-21T05:35:04.304Z,9.11
2022-09-21T05:36:03.778Z,9.13
2022-09-21T05:37:14.254Z,9.14
2022-09-21T05:38:04.524Z,9.16
2022-09-21T05:39:04.607Z,9.18
2022-09-21T05:40:09.695Z,9.19
2022-09-21T05:41:04.024Z,9.21
2022-09-21T05:42:17.659Z,9.22
2022-09-21T05:43:03.623Z,9.23
2022-09-21T05:44:06.259Z,9.24
2022-09-21T05:45:04.100Z,9.24
2022-09-21T05:46:17.291Z,9.25
2022-09-21T05:47:04.594Z,9.25
2022-09-21T05:48:04.146Z,9.26
2022-09-21T05:49:03.974Z,9.26
2022-09-21T05:50:04.846Z,9.28
2022-09-21T05:51:02.740Z,9.29
2022-09-21T05:52:03.202Z,9.32
2022-09-21T05:53:15.036Z,9.34
2022-09-21T05:54:02.585Z,9.38
2022-09-21T05:55:07.800Z,9.41
2022-09-21T05:56:04.437Z,9.45
2022-09-21T05:57:03.614Z,9.49
2022-09-21T05:58:03.480Z,9.53
2022-09-21T05:59:04.372Z,9.57
2022-09-21T06:00:03.837Z,9.61
2022-09-21T06:01:03.596Z,9.65
2022-09-21T06:02:04.185Z,9.70
2022-09-21T06:03:04.749Z,9.74
2022-09-21T06:04:04.604Z,9.78
2022-09-21T06:05:27.902Z,9.82
2022-09-21T06:06:03.661Z,9.85
2022-09-21T06:07:06.484Z,9.87
2022-09-21T06:08:03.198Z,9.89
2022-09-21T06:09:04.759Z,9.91
2022-09-21T06:10:03.853Z,9.92
2022-09-21T06:11:47.223Z,11.09
2022-09-21T06:12:47.664Z,10.64
2022-09-21T06:13:48.846Z,10.35
2022-09-21T06:14:48.085Z,10.19
2022-09-21T06:15:48.408Z,10.12
2022-09-21T06:16:56.449Z,10.08
2022-09-21T06:17:54.531Z,10.08
2022-09-21T06:18:47.114Z,10.09
2022-09-21T06:19:48.435Z,10.12
2022-09-21T06:20:47.375Z,10.15
2022-09-21T06:21:47.523Z,10.19
2022-09-21T06:22:47.594Z,10.23
2022-09-21T06:23:48.153Z,10.28
2022-09-21T06:24:48.921Z,10.32
2022-09-21T06:25:49.367Z,10.37
2022-09-21T06:26:47.480Z,10.42
2022-09-21T06:28:22.407Z,10.48
2022-09-21T06:28:54.830Z,10.53
2022-09-21T06:29:48.089Z,10.58
2022-09-21T06:30:49.230Z,10.64
2022-09-21T06:32:28.183Z,10.69
2022-09-21T06:32:47.467Z,10.74
2022-09-21T06:33:48.215Z,10.78
2022-09-21T06:34:47.575Z,10.83
2022-09-21T06:35:49.129Z,10.87
2022-09-21T06:36:48.191Z,10.91
2022-09-21T06:37:49.466Z,10.95
2022-09-21T06:38:47.938Z,11.00
2022-09-21T06:39:48.273Z,11.04
2022-09-21T06:40:47.017Z,11.08
2022-09-21T06:41:51.127Z,11.12
2022-09-21T06:42:46.997Z,11.16
2022-09-21T06:43:46.917Z,11.20
2022-09-21T06:44:47.208Z,11.24
2022-09-21T06:45:47.082Z,11.27
2022-09-21T06:46:47.539Z,11.31
2022-09-21T06:47:53.690Z,11.35
2022-09-21T06:48:55.784Z,11.39
2022-09-21T06:49:48.795Z,11.43
2022-09-21T06:50:50.373Z,11.47
2022-09-21T06:51:47.396Z,11.50
2022-09-21T06:53:06.949Z,11.54
2022-09-21T06:53:47.809Z,11.57
2022-09-21T06:54:48.630Z,11.60
2022-09-21T06:55:49.391Z,11.63
2022-09-21T06:56:48.305Z,11.65
2022-09-21T06:57:48.986Z,11.67
2022-09-21T06:58:49.189Z,11.69
2022-09-21T06:59:48.342Z,11.71
2022-09-21T07:00:49.852Z,11.73
2022-09-21T07:01:49.283Z,11.75
2022-09-21T07:02:48.768Z,11.77
2022-09-21T07:03:48.788Z,11.79
2022-09-21T07:04:50.208Z,11.81
2022-09-21T07:05:49.326Z,11.83
2022-09-21T07:06:49.569Z,11.86
2022-09-21T07:07:47.660Z,11.88
2022-09-21T07:10:48.847Z,11.97
2022-09-21T07:12:05.142Z,12.00
2022-09-21T07:12:47.205Z,12.03
2022-09-21T07:13:48.731Z,12.06
2022-09-21T07:14:47.347Z,12.09
2022-09-21T07:15:50.205Z,12.12
2022-09-21T07:16:49.388Z,12.15
2022-09-21T07:18:05.571Z,12.18
2022-09-21T07:18:47.951Z,12.20
2022-09-21T07:19:46.498Z,12.21
2022-09-21T07:20:46.810Z,12.22
2022-09-21T07:21:46.347Z,12.22
2022-09-21T07:22:54.030Z,12.21
2022-09-21T07:23:46.798Z,12.18
2022-09-21T07:24:48.345Z,12.16
2022-09-21T07:25:48.121Z,12.13
2022-09-21T07:26:46.676Z,12.10
2022-09-21T07:27:47.542Z,12.07
2022-09-21T07:28:47.781Z,12.05
2022-09-21T07:29:47.595Z,12.05
2022-09-21T07:30:46.706Z,12.05
2022-09-21T07:31:47.447Z,12.05
2022-09-21T07:32:47.265Z,12.05
2022-09-21T07:34:07.584Z,12.04
2022-09-21T07:34:57.511Z,12.03
2022-09-21T07:35:47.405Z,12.02
2022-09-21T07:36:49.611Z,12.03
2022-09-21T07:37:47.726Z,12.04
2022-09-21T07:38:47.413Z,12.07
2022-09-21T07:39:46.669Z,12.11
2022-09-21T07:40:50.467Z,12.15
2022-09-21T07:41:51.837Z,12.21
2022-09-21T07:42:49.607Z,12.26
2022-09-21T07:43:47.544Z,12.31
2022-09-21T07:44:51.176Z,12.36
2022-09-21T07:45:47.432Z,12.41
2022-09-21T07:46:48.326Z,12.45
2022-09-21T07:47:46.794Z,12.49
2022-09-21T07:48:46.796Z,12.53
2022-09-21T07:49:46.418Z,12.58
2022-09-21T07:50:51.710Z,12.62
2022-09-21T07:51:46.250Z,12.66
2022-09-21T07:52:48.858Z,12.70
2022-09-21T07:53:47.242Z,12.74
2022-09-21T07:54:47.123Z,12.77
2022-09-21T07:55:46.496Z,12.79
2022-09-21T07:56:47.040Z,12.82
2022-09-21T07:57:53.732Z,12.84
2022-09-21T07:58:47.566Z,12.87
2022-09-21T07:59:47.536Z,12.89
2022-09-21T08:00:46.463Z,12.92
2022-09-21T08:01:47.548Z,12.95
2022-09-21T08:03:05.395Z,12.98
2022-09-21T08:03:56.738Z,13.01
2022-09-21T08:04:46.277Z,13.03
2022-09-21T08:05:47.646Z,13.06
2022-09-21T08:06:47.230Z,13.09
2022-09-21T08:07:46.987Z,13.12
2022-09-21T08:08:46.216Z,13.15
2022-09-21T08:09:48.910Z,13.19
2022-09-21T08:10:47.902Z,13.24
2022-09-21T08:11:47.289Z,13.30
2022-09-21T08:12:50.314Z,13.35
2022-09-21T08:13:55.571Z,13.40
2022-09-21T08:14:51.960Z,13.45
2022-09-21T08:15:49.876Z,13.48
2022-09-21T08:16:46.823Z,13.52
2022-09-21T08:17:46.888Z,13.56
2022-09-21T08:18:45.668Z,13.60
2022-09-21T08:19:53.073Z,13.64
2022-09-21T08:20:46.537Z,13.69
2022-09-21T08:21:46.152Z,13.73
2022-09-21T08:22:45.546Z,13.78
2022-09-21T08:23:46.980Z,13.83
2022-09-21T08:24:47.772Z,13.90
2022-09-21T08:25:45.643Z,13.97
2022-09-21T08:26:49.956Z,14.04
2022-09-21T08:27:47.973Z,14.11
2022-09-21T08:28:45.712Z,14.17
2022-09-21T08:29:46.129Z,14.23
2022-09-21T08:30:52.487Z,14.28
2022-09-21T08:31:46.392Z,14.33
2022-09-21T08:33:12.225Z,14.39
2022-09-21T08:33:46.915Z,14.44
2022-09-21T08:34:45.874Z,14.48
2022-09-21T08:35:52.293Z,14.51
2022-09-21T08:36:45.740Z,14.53
2022-09-21T08:37:45.647Z,14.54
2022-09-21T08:38:45.954Z,14.56
2022-09-21T08:39:47.223Z,14.58
2022-09-21T08:40:46.344Z,14.61
2022-09-21T08:41:46.171Z,14.64
2022-09-21T08:42:50.584Z,14.67
2022-09-21T08:43:47.328Z,14.70
2022-09-21T08:44:45.789Z,14.73
2022-09-21T08:45:46.762Z,14.76
2022-09-21T08:46:49.455Z,14.80
2022-09-21T08:47:45.642Z,14.84
2022-09-21T08:48:45.474Z,14.88
2022-09-21T08:49:46.015Z,14.91
2022-09-21T08:50:45.485Z,14.94
2022-09-21T08:51:56.018Z,14.97
2022-09-21T08:52:47.050Z,15.00
2022-09-21T08:53:46.477Z,15.03
2022-09-21T08:54:45.062Z,15.05
2022-09-21T08:55:45.170Z,15.08
2022-09-21T08:57:04.029Z,15.10
2022-09-21T08:57:51.433Z,15.13
2022-09-21T08:58:45.072Z,15.16
2022-09-21T08:59:45.531Z,15.19
2022-09-21T09:00:45.385Z,15.22
2022-09-21T09:01:46.220Z,15.25
2022-09-21T09:02:45.099Z,15.27
2022-09-21T09:03:46.150Z,15.29
2022-09-21T09:04:45.288Z,15.30
2022-09-21T09:05:45.428Z,15.31
2022-09-21T09:06:51.459Z,15.31
2022-09-21T09:07:45.099Z,15.31
2022-09-21T09:08:46.198Z,15.31
2022-09-21T09:09:45.009Z,15.30
2022-09-21T09:10:45.109Z,15.28
2022-09-21T09:11:52.571Z,15.27
2022-09-21T09:12:45.341Z,15.27
2022-09-21T09:13:45.008Z,15.28
2022-09-21T09:14:44.931Z,15.31
2022-09-21T09:15:45.450Z,15.34
2022-09-21T09:16:51.354Z,15.38
2022-09-21T09:17:45.342Z,15.43
2022-09-21T09:18:54.947Z,15.46
2022-09-21T09:19:46.153Z,15.48
2022-09-21T09:20:45.961Z,15.50
2022-09-21T09:21:52.616Z,15.51
2022-09-21T09:22:53.702Z,15.51
2022-09-21T09:23:46.157Z,15.50
2022-09-21T09:24:44.767Z,15.48
2022-09-21T09:25:44.720Z,15.48
2022-09-21T09:26:45.705Z,15.47
2022-09-21T09:27:45.778Z,15.47
2022-09-21T09:28:45.201Z,15.46
2022-09-21T09:29:45.458Z,15.46
2022-09-21T09:30:45.895Z,15.47
2022-09-21T09:31:49.557Z,15.50
2022-09-21T09:32:46.972Z,15.51
2022-09-21T09:33:45.769Z,15.52
2022-09-21T09:34:45.505Z,15.51
2022-09-21T09:35:47.504Z,15.49
2022-09-21T09:36:58.286Z,15.47
2022-09-21T09:37:53.973Z,15.46
2022-09-21T09:38:50.110Z,15.45
2022-09-21T09:39:48.560Z,15.45
2022-09-21T09:40:46.292Z,15.44
2022-09-21T09:41:46.959Z,15.43
2022-09-21T09:42:45.699Z,15.42
2022-09-21T09:43:44.611Z,15.40
2022-09-21T09:44:44.645Z,15.37
2022-09-21T09:45:44.518Z,15.33
2022-09-21T09:46:45.477Z,15.28
2022-09-21T09:47:45.583Z,15.23
2022-09-21T09:48:45.491Z,15.17
2022-09-21T09:49:45.170Z,15.12
2022-09-21T09:50:46.124Z,15.08
2022-09-21T09:51:45.051Z,15.04
2022-09-21T09:52:44.581Z,15.00
2022-09-21T09:53:45.521Z,14.97
2022-09-21T09:54:44.471Z,14.95
2022-09-21T09:55:44.977Z,14.93
2022-09-21T09:56:44.565Z,14.91
2022-09-21T09:57:44.331Z,14.90
2022-09-21T09:58:45.597Z,14.90
2022-09-21T09:59:45.435Z,14.89
2022-09-21T10:00:44.998Z,14.90
2022-09-21T10:01:44.691Z,14.91
2022-09-21T10:02:45.477Z,14.92
2022-09-21T10:03:46.508Z,14.93
2022-09-21T10:04:52.722Z,14.94
2022-09-21T10:05:45.076Z,14.95
2022-09-21T10:06:46.755Z,14.96
2022-09-21T10:07:44.794Z,14.97
2022-09-21T10:08:45.263Z,14.98
2022-09-21T10:09:44.749Z,14.99
2022-09-21T10:10:45.664Z,14.99
2022-09-21T10:11:45.404Z,15.01
2022-09-21T10:12:44.734Z,15.02
2022-09-21T10:13:44.186Z,15.04
2022-09-21T10:14:44.092Z,15.06
2022-09-21T10:15:44.940Z,15.08
2022-09-21T10:16:44.511Z,15.10
2022-09-21T10:17:44.304Z,15.11
2022-09-21T10:18:44.306Z,15.11
2022-09-21T10:19:44.570Z,15.12
2022-09-21T10:20:46.587Z,15.12
2022-09-21T10:21:47.688Z,15.12
2022-09-21T10:22:46.828Z,15.12
2022-09-21T10:23:44.063Z,15.13
2022-09-21T10:24:43.852Z,15.14
2022-09-21T10:25:47.009Z,15.17
2022-09-21T10:26:50.466Z,15.19
2022-09-21T10:27:43.847Z,15.23
2022-09-21T10:28:43.982Z,15.27
2022-09-21T10:29:43.852Z,15.31
2022-09-21T10:30:54.776Z,15.35
2022-09-21T10:31:50.552Z,15.38
2022-09-21T10:32:45.084Z,15.40
2022-09-21T10:33:44.126Z,15.42
2022-09-21T10:34:43.863Z,15.46
2022-09-21T10:35:43.872Z,15.53
2022-09-21T10:36:44.790Z,15.61
2022-09-21T10:37:45.304Z,15.70
2022-09-21T10:38:44.349Z,15.78
2022-09-21T10:39:46.435Z,15.84
2022-09-21T10:40:44.733Z,15.90
2022-09-21T10:41:50.495Z,15.94
2022-09-21T10:42:44.625Z,15.97
2022-09-21T10:43:44.008Z,15.99
2022-09-21T10:44:43.716Z,16.00
2022-09-21T10:45:43.997Z,16.01
2022-09-21T10:46:45.024Z,16.04
2022-09-21T10:47:45.842Z,16.08
2022-09-21T10:48:44.596Z,16.13
2022-09-21T10:49:43.865Z,16.19
2022-09-21T10:50:47.969Z,16.26
2022-09-21T10:51:44.966Z,16.33
2022-09-21T10:52:52.280Z,16.41
2022-09-21T10:53:44.601Z,16.50
2022-09-21T10:54:43.720Z,16.58
2022-09-21T10:55:52.697Z,16.67
2022-09-21T10:56:45.061Z,16.77
2022-09-21T10:57:45.743Z,16.87
2022-09-21T10:58:43.966Z,16.95
2022-09-21T10:59:46.518Z,17.01
2022-09-21T11:00:44.606Z,17.06
2022-09-21T11:01:44.598Z,17.12
2022-09-21T11:02:43.543Z,17.19
2022-09-21T11:03:50.293Z,17.24
2022-09-21T11:04:44.777Z,17.27
2022-09-21T11:05:44.253Z,17.28
2022-09-21T11:06:43.534Z,17.26
2022-09-21T11:07:43.463Z,17.24
2022-09-21T11:08:43.784Z,17.22
2022-09-21T11:09:45.640Z,17.20
2022-09-21T11:10:43.552Z,17.20
2022-09-21T11:11:43.455Z,17.23
2022-09-21T11:12:44.744Z,17.27
2022-09-21T11:13:43.505Z,17.30
2022-09-21T11:14:43.876Z,17.32
2022-09-21T11:15:44.599Z,17.37
2022-09-21T11:16:43.850Z,17.42
2022-09-21T11:17:43.396Z,17.46
2022-09-21T11:18:43.725Z,17.51
2022-09-21T11:19:43.464Z,17.57
2022-09-21T11:20:44.508Z,17.65
2022-09-21T11:21:50.201Z,17.74
2022-09-21T11:22:44.191Z,17.83
2022-09-21T11:23:43.282Z,17.89
2022-09-21T11:24:44.236Z,17.90
2022-09-21T11:25:43.499Z,17.88
2022-09-21T11:26:50.802Z,17.83
2022-09-21T11:27:46.287Z,17.78
2022-09-21T11:28:43.030Z,17.73
2022-09-21T11:29:51.576Z,17.68
2022-09-21T11:30:43.206Z,17.63
2022-09-21T11:31:50.269Z,17.57
2022-09-21T11:32:44.214Z,17.53
2022-09-21T11:33:43.229Z,17.50
2022-09-21T11:34:44.690Z,17.49
2022-09-21T11:35:43.656Z,17.52
2022-09-21T11:36:44.132Z,17.59
2022-09-21T11:37:44.141Z,17.69
2022-09-21T11:38:43.475Z,17.82
2022-09-21T11:39:43.079Z,17.96
2022-09-21T11:40:45.170Z,18.10
2022-09-21T11:41:43.484Z,18.21
2022-09-21T11:42:44.317Z,18.28
2022-09-21T11:43:44.161Z,18.33
2022-09-21T11:44:43.788Z,18.37
2022-09-21T11:45:48.371Z,18.41
2022-09-21T11:46:45.734Z,18.44
2022-09-21T11:47:43.947Z,18.47
2022-09-21T11:48:44.165Z,18.51
2022-09-21T11:49:51.931Z,18.55
2022-09-21T11:50:45.629Z,18.59
2022-09-21T11:51:43.265Z,18.63
2022-09-21T11:52:43.816Z,18.66
2022-09-21T11:53:43.115Z,18.67
2022-09-21T11:54:43.726Z,18.66
2022-09-21T11:55:44.926Z,18.63
2022-09-21T11:56:46.644Z,18.61
2022-09-21T11:57:42.833Z,18.59
2022-09-21T11:58:45.643Z,18.59
2022-09-21T11:59:43.503Z,18.59
2022-09-21T12:00:49.990Z,18.59
2022-09-21T12:01:43.303Z,18.60
2022-09-21T12:02:44.166Z,18.63
2022-09-21T12:03:42.921Z,18.65
2022-09-21T12:04:51.074Z,18.67
2022-09-21T12:05:42.923Z,18.68
2022-09-21T12:06:43.627Z,18.69
2022-09-21T12:07:43.965Z,18.68
2022-09-21T12:08:44.002Z,18.67
2022-09-21T12:09:43.246Z,18.66
2022-09-21T12:10:49.876Z,18.63
2022-09-21T12:11:43.091Z,18.58
2022-09-21T12:12:43.703Z,18.51
2022-09-21T12:13:42.862Z,18.44
2022-09-21T12:14:43.025Z,18.36
2022-09-21T12:15:42.733Z,18.29
2022-09-21T12:16:49.686Z,18.23
2022-09-21T12:17:42.792Z,18.17
2022-09-21T12:18:53.864Z,18.12
2022-09-21T12:19:44.525Z,18.06
2022-09-21T12:20:47.484Z,18.00
2022-09-21T12:21:43.566Z,17.95
2022-09-21T12:22:43.630Z,17.91
2022-09-21T12:23:43.277Z,17.88
2022-09-21T12:24:43.062Z,17.87
2022-09-21T12:25:44.617Z,17.86
2022-09-21T12:26:42.420Z,17.84
2022-09-21T12:27:42.540Z,17.80
2022-09-21T12:28:49.247Z,17.75
2022-09-21T12:29:42.873Z,17.69
2022-09-21T12:30:42.450Z,17.62
2022-09-21T12:31:42.547Z,17.56
2022-09-21T12:32:42.392Z,17.51
2022-09-21T12:33:42.843Z,17.46
2022-09-21T12:34:43.313Z,17.41
2022-09-21T12:35:44.152Z,17.38
2022-09-21T12:36:42.790Z,17.35
2022-09-21T12:37:43.553Z,17.34
2022-09-21T12:38:42.373Z,17.34
2022-09-21T12:39:43.174Z,17.35
2022-09-21T12:40:43.333Z,17.36
2022-09-21T12:41:44.102Z,17.38
2022-09-21T12:42:42.152Z,17.40
2022-09-21T12:43:42.222Z,17.44
2022-09-21T12:44:58.226Z,17.49
2022-09-21T12:45:45.848Z,17.55
2022-09-21T12:46:45.326Z,17.63
2022-09-21T12:47:43.249Z,17.71
2022-09-21T12:48:42.228Z,17.78
2022-09-21T12:49:43.301Z,17.84
2022-09-21T12:50:44.667Z,17.90
2022-09-21T12:51:43.033Z,17.99
2022-09-21T12:52:43.032Z,18.18
2022-09-21T12:53:43.220Z,18.38
2022-09-21T12:54:44.557Z,18.50
2022-09-21T12:55:43.082Z,18.57
2022-09-21T12:56:45.477Z,18.62
2022-09-21T12:58:04.461Z,18.66
2022-09-21T12:58:43.768Z,18.67
2022-09-21T12:59:42.069Z,18.69
2022-09-21T13:00:43.206Z,19.27
2022-09-21T13:01:42.275Z,20.60
2022-09-21T13:03:44.233Z,23.83
2022-09-21T13:04:42.235Z,25.26
2022-09-21T13:05:43.283Z,26.28
2022-09-21T13:06:42.661Z,26.75
2022-09-21T13:07:43.390Z,27.12
2022-09-21T13:08:42.049Z,27.48
2022-09-21T13:09:42.544Z,27.90